createdAt,value
2016-11-22T00:00:13.398Z,54.21
2016-11-22T00:01:13.439Z,53.92
2016-11-22T00:02:13.447Z,54.21
2016-11-22T00:03:13.480Z,54.21
2016-11-22T00:04:13.516Z,54.21
2016-11-22T00:05:13.545Z,54.69
2016-11-22T00:06:13.570Z,54.11
2016-11-22T00:07:13.287Z,54.21
2016-11-22T00:08:13.623Z,54.11
2016-11-22T00:09:13.655Z,53.92
2016-11-22T00:10:13.372Z,54.11
2016-11-22T00:11:13.721Z,54.21
2016-11-22T00:12:13.733Z,53.92
2016-11-22T00:13:13.759Z,53.92
2016-11-22T00:14:13.795Z,53.83
2016-11-22T00:15:13.512Z,54.21
2016-11-22T00:16:13.848Z,54.31
2016-11-22T00:17:13.884Z,54.4
2016-11-22T00:18:13.594Z,54.21
2016-11-22T00:19:13.930Z,53.83
2016-11-22T00:20:13.959Z,54.21
2016-11-22T00:21:13.988Z,54.21
2016-11-22T00:22:13.708Z,54.4
2016-11-22T00:23:13.746Z,54.4
2016-11-22T00:24:13.771Z,54.31
2016-11-22T00:25:14.114Z,54.31
2016-11-22T00:26:13.819Z,54.21
2016-11-22T00:27:13.857Z,53.92
2016-11-22T00:28:14.177Z,54.21
2016-11-22T00:29:13.909Z,54.5
2016-11-22T00:30:14.234Z,54.31
2016-11-22T00:31:14.263Z,54.5
2016-11-22T00:32:13.991Z,54.5
2016-11-22T00:33:14.332Z,53.83
2016-11-22T00:34:14.349Z,53.92
2016-11-22T00:35:14.431Z,53.83
2016-11-22T00:36:14.411Z,53.83
2016-11-22T00:37:14.436Z,53.92
2016-11-22T00:38:14.467Z,54.31
2016-11-22T00:39:14.492Z,53.83
2016-11-22T00:40:14.518Z,53.92
2016-11-22T00:41:14.567Z,53.83
2016-11-22T00:42:14.574Z,53.83
2016-11-22T00:43:14.624Z,54.02
2016-11-22T00:44:14.332Z,54.02
2016-11-22T00:45:14.665Z,54.02
2016-11-22T00:46:14.689Z,53.92
2016-11-22T00:47:14.711Z,54.11
2016-11-22T00:48:14.439Z,53.92
2016-11-22T00:49:14.776Z,53.92
2016-11-22T00:50:14.805Z,53.92
2016-11-22T00:51:14.841Z,54.11
2016-11-22T00:52:14.856Z,54.02
2016-11-22T00:53:14.887Z,53.92
2016-11-22T00:54:14.612Z,53.83
2016-11-22T00:55:14.937Z,54.11
2016-11-22T00:56:14.974Z,54.02
2016-11-22T00:57:14.993Z,53.63
2016-11-22T00:58:15.031Z,53.83
2016-11-22T00:59:15.064Z,54.21
2016-11-22T01:00:15.085Z,54.21
2016-11-22T01:01:15.117Z,53.92
2016-11-22T01:02:15.144Z,54.11
2016-11-22T01:03:15.162Z,53.83
2016-11-22T01:04:15.204Z,54.21
2016-11-22T01:05:14.930Z,53.83
2016-11-22T01:06:15.249Z,53.83
2016-11-22T01:07:15.287Z,53.73
2016-11-22T01:08:15.315Z,53.83
2016-11-22T01:09:15.036Z,53.73
2016-11-22T01:10:15.359Z,53.83
2016-11-22T01:11:15.396Z,53.73
2016-11-22T01:12:15.417Z,53.73
2016-11-22T01:13:15.453Z,53.83
2016-11-22T01:14:15.475Z,53.73
2016-11-22T01:15:15.513Z,53.83
2016-11-22T01:16:15.548Z,53.73
2016-11-22T01:17:15.269Z,53.83
2016-11-22T01:18:15.598Z,53.73
2016-11-22T01:19:15.635Z,53.73
2016-11-22T01:20:15.347Z,53.83
2016-11-22T01:21:15.673Z,53.92
2016-11-22T01:22:15.396Z,54.02
2016-11-22T01:23:15.737Z,54.11
2016-11-22T01:24:15.767Z,53.73
2016-11-22T01:25:15.491Z,53.63
2016-11-22T01:26:15.813Z,53.99
2016-11-22T01:27:15.548Z,54.11
2016-11-22T01:28:15.886Z,53.89
2016-11-22T01:29:15.910Z,53.83
2016-11-22T01:30:15.934Z,53.73
2016-11-22T01:31:15.660Z,53.83
2016-11-22T01:32:15.993Z,53.61
2016-11-22T01:33:15.721Z,53.8
2016-11-22T01:34:16.038Z,53.63
2016-11-22T01:35:16.088Z,53.8
2016-11-22T01:36:16.103Z,53.61
2016-11-22T01:37:15.829Z,53.8
2016-11-22T01:38:16.153Z,53.7
2016-11-22T01:39:16.190Z,53.51
2016-11-22T01:40:16.215Z,53.83
2016-11-22T01:41:15.936Z,53.31
2016-11-22T01:42:15.960Z,53.61
2016-11-22T01:43:16.293Z,53.83
2016-11-22T01:44:16.336Z,53.8
2016-11-22T01:45:16.347Z,53.7
2016-11-22T01:46:16.076Z,53.51
2016-11-22T01:47:16.116Z,53.8
2016-11-22T01:48:16.442Z,53.8
2016-11-22T01:49:16.485Z,53.99
2016-11-22T01:50:16.491Z,53.7
2016-11-22T01:51:16.531Z,53.31
2016-11-22T01:52:16.552Z,53.8
2016-11-22T01:53:16.585Z,53.61
2016-11-22T01:54:16.622Z,53.8
2016-11-22T01:55:16.639Z,53.8
2016-11-22T01:56:16.663Z,53.8
2016-11-22T01:57:16.693Z,53.8
2016-11-22T01:58:16.412Z,53.8
2016-11-22T01:59:16.438Z,53.7
2016-11-22T02:00:16.774Z,53.7
2016-11-22T02:01:16.814Z,53.7
2016-11-22T02:02:16.827Z,53.61
2016-11-22T02:03:16.559Z,54.09
2016-11-22T02:04:16.887Z,53.41
2016-11-22T02:05:16.605Z,53.99
2016-11-22T02:06:16.629Z,53.51
2016-11-22T02:07:16.962Z,53.51
2016-11-22T02:08:16.994Z,53.44
2016-11-22T02:09:17.023Z,53.51
2016-11-22T02:10:16.748Z,53.41
2016-11-22T02:11:17.080Z,53.7
2016-11-22T02:12:17.105Z,53.44
2016-11-22T02:13:17.146Z,53.7
2016-11-22T02:14:17.159Z,53.41
2016-11-22T02:15:16.891Z,53.51
2016-11-22T02:16:17.224Z,53.41
2016-11-22T02:17:17.242Z,53.51
2016-11-22T02:18:16.964Z,53.7
2016-11-22T02:19:17.306Z,53.7
2016-11-22T02:20:17.330Z,53.51
2016-11-22T02:21:17.355Z,53.61
2016-11-22T02:22:17.392Z,53.8
2016-11-22T02:23:17.113Z,53.61
2016-11-22T02:24:17.444Z,53.31
2016-11-22T02:25:17.466Z,53.41
2016-11-22T02:26:17.498Z,53.7
2016-11-22T02:27:17.531Z,53.41
2016-11-22T02:28:17.551Z,53.31
2016-11-22T02:29:17.272Z,53.22
2016-11-22T02:30:17.300Z,53.22
2016-11-22T02:31:17.633Z,53.41
2016-11-22T02:32:17.662Z,53.31
2016-11-22T02:33:17.390Z,53.31
2016-11-22T02:34:17.410Z,53.41
2016-11-22T02:35:17.747Z,53.51
2016-11-22T02:36:17.475Z,53.51
2016-11-22T02:37:17.500Z,53.51
2016-11-22T02:38:17.833Z,53.61
2016-11-22T02:39:17.557Z,53.7
2016-11-22T02:40:17.585Z,53.22
2016-11-22T02:41:17.606Z,53.41
2016-11-22T02:42:17.633Z,53.51
2016-11-22T02:43:17.975Z,53.51
2016-11-22T02:44:17.996Z,53.51
2016-11-22T02:45:17.724Z,53.51
2016-11-22T02:46:18.054Z,53.41
2016-11-22T02:47:17.794Z,53.41
2016-11-22T02:48:18.107Z,53.51
2016-11-22T02:49:18.140Z,53.7
2016-11-22T02:50:18.169Z,53.41
2016-11-22T02:51:18.208Z,53.51
2016-11-22T02:57:27.909Z,53.31
2016-11-22T02:58:27.630Z,53.61
2016-11-22T02:59:27.967Z,53.41
2016-11-22T03:00:27.693Z,53.41
2016-11-22T03:01:28.021Z,53.41
2016-11-22T03:02:28.054Z,53.41
2016-11-22T03:03:28.077Z,53.51
2016-11-22T03:04:27.808Z,53.51
2016-11-22T03:05:28.131Z,53.61
2016-11-22T03:06:28.169Z,53.51
2016-11-22T03:07:27.888Z,53.51
2016-11-22T03:08:28.213Z,53.41
2016-11-22T03:09:27.941Z,53.51
2016-11-22T03:10:28.275Z,53.8
2016-11-22T03:11:27.999Z,53.41
2016-11-22T03:12:28.328Z,53.31
2016-11-22T03:13:28.353Z,53.51
2016-11-22T03:14:28.394Z,53.51
2016-11-22T03:15:28.115Z,53.51
2016-11-22T03:16:28.460Z,53.51
2016-11-22T03:17:28.468Z,53.7
2016-11-22T03:18:28.192Z,53.7
2016-11-22T03:19:28.525Z,53.61
2016-11-22T03:20:28.546Z,53.7
2016-11-22T03:21:28.582Z,53.7
2016-11-22T03:22:28.611Z,53.8
2016-11-22T03:23:28.639Z,53.61
2016-11-22T03:24:28.656Z,53.61
2016-11-22T03:25:28.389Z,53.8
2016-11-22T03:26:28.413Z,53.8
2016-11-22T03:27:28.748Z,53.7
2016-11-22T03:28:28.476Z,53.8
2016-11-22T03:29:28.808Z,53.51
2016-11-22T03:30:28.830Z,53.61
2016-11-22T03:31:28.862Z,53.8
2016-11-22T03:32:28.886Z,53.8
2016-11-22T03:33:28.610Z,53.13
2016-11-22T03:34:28.635Z,53.31
2016-11-22T03:35:28.968Z,53.41
2016-11-22T03:36:28.992Z,53.22
2016-11-22T03:37:28.725Z,53.31
2016-11-22T03:38:29.054Z,53.41
2016-11-22T03:39:29.078Z,53.22
2016-11-22T03:40:29.099Z,53.22
2016-11-22T03:41:29.132Z,53.13
2016-11-22T03:42:28.865Z,53.41
2016-11-22T03:43:28.889Z,53.22
2016-11-22T03:44:29.214Z,52.93
2016-11-22T03:45:29.251Z,53.03
2016-11-22T03:46:29.281Z,52.93
2016-11-22T03:47:29.309Z,53.03
2016-11-22T03:48:29.025Z,52.93
2016-11-22T03:49:29.367Z,52.73
2016-11-22T03:50:29.391Z,53.03
2016-11-22T03:51:29.113Z,53.03
2016-11-22T03:52:29.140Z,53.03
2016-11-22T03:53:29.470Z,52.93
2016-11-22T03:54:29.195Z,53.03
2016-11-22T03:55:29.527Z,53.03
2016-11-22T03:56:29.255Z,52.93
2016-11-22T03:57:29.579Z,52.83
2016-11-22T03:58:29.605Z,53.03
2016-11-22T03:59:29.646Z,52.93
2016-11-22T04:00:29.359Z,52.73
2016-11-22T04:01:29.412Z,52.83
2016-11-22T04:02:29.416Z,52.91
2016-11-22T04:03:29.449Z,53.03
2016-11-22T04:04:29.473Z,52.91
2016-11-22T04:05:29.803Z,53
2016-11-22T04:06:29.830Z,52.93
2016-11-22T04:07:29.555Z,53
2016-11-22T04:08:29.585Z,53
2016-11-22T04:09:29.917Z,52.81
2016-11-22T04:10:29.646Z,52.83
2016-11-22T04:11:29.973Z,53.03
2016-11-22T04:12:29.691Z,52.81
2016-11-22T04:13:30.036Z,53.09
2016-11-22T04:14:30.052Z,52.91
2016-11-22T04:15:29.777Z,53.03
2016-11-22T04:16:29.833Z,53.09
2016-11-22T04:17:30.135Z,53
2016-11-22T04:18:30.167Z,52.93
2016-11-22T04:19:29.888Z,53.09
2016-11-22T04:20:30.229Z,52.81
2016-11-22T04:21:30.245Z,52.81
2016-11-22T04:22:30.274Z,53.13
2016-11-22T04:23:29.995Z,53
2016-11-22T04:24:30.335Z,53
2016-11-22T04:25:30.360Z,53
2016-11-22T04:26:30.384Z,52.91
2016-11-22T04:27:30.413Z,52.71
2016-11-22T04:28:30.441Z,53
2016-11-22T04:29:30.171Z,53.19
2016-11-22T04:30:30.499Z,52.91
2016-11-22T04:31:30.222Z,53
2016-11-22T04:32:30.249Z,52.81
2016-11-22T04:33:30.578Z,53
2016-11-22T04:34:30.307Z,53
2016-11-22T04:35:30.635Z,53
2016-11-22T04:36:30.663Z,52.81
2016-11-22T04:37:30.381Z,52.91
2016-11-22T04:38:30.718Z,53
2016-11-22T04:39:30.747Z,53
2016-11-22T04:40:30.776Z,53.09
2016-11-22T04:41:30.500Z,52.91
2016-11-22T04:42:30.829Z,52.71
2016-11-22T04:43:30.859Z,53
2016-11-22T04:44:30.887Z,53.09
2016-11-22T04:45:30.921Z,52.91
2016-11-22T04:46:30.945Z,53.09
2016-11-22T04:47:30.966Z,53
2016-11-22T04:48:31.000Z,52.91
2016-11-22T04:49:31.028Z,52.81
2016-11-22T04:50:31.069Z,53
2016-11-22T04:51:31.082Z,53
2016-11-22T04:52:31.110Z,52.91
2016-11-22T04:53:30.837Z,53
2016-11-22T04:54:30.859Z,52.81
2016-11-22T04:55:31.193Z,53
2016-11-22T04:56:31.221Z,52.91
2016-11-22T04:57:31.282Z,53
2016-11-22T04:58:31.274Z,52.91
2016-11-22T04:59:31.299Z,53.09
2016-11-22T05:00:31.029Z,53.09
2016-11-22T05:01:31.362Z,52.91
2016-11-22T05:02:31.085Z,53.09
2016-11-22T05:03:31.107Z,53.19
2016-11-22T05:04:31.448Z,53.19
2016-11-22T05:05:31.464Z,52.81
2016-11-22T05:06:31.502Z,53.19
2016-11-22T05:07:31.518Z,53.19
2016-11-22T05:08:31.587Z,53.09
2016-11-22T05:09:31.589Z,53
2016-11-22T05:10:31.601Z,53.29
2016-11-22T05:11:31.338Z,53.09
2016-11-22T05:12:31.363Z,53.09
2016-11-22T05:13:31.388Z,53.29
2016-11-22T05:14:31.420Z,52.91
2016-11-22T05:15:31.745Z,53.09
2016-11-22T05:16:31.778Z,53.09
2016-11-22T05:17:31.811Z,53.29
2016-11-22T05:18:31.524Z,53.09
2016-11-22T05:19:31.860Z,53.19
2016-11-22T05:20:31.886Z,53.09
2016-11-22T05:21:31.606Z,53.19
2016-11-22T05:22:31.635Z,53.19
2016-11-22T05:23:31.976Z,52.91
2016-11-22T05:24:31.992Z,52.91
2016-11-22T05:25:32.025Z,53.09
2016-11-22T05:26:32.063Z,53.09
2016-11-22T05:27:32.075Z,52.91
2016-11-22T05:28:32.112Z,53
2016-11-22T05:29:32.137Z,52.91
2016-11-22T05:30:31.858Z,52.81
2016-11-22T05:31:32.199Z,53
2016-11-22T05:32:31.911Z,53
2016-11-22T05:33:32.249Z,52.81
2016-11-22T05:34:32.273Z,53
2016-11-22T05:35:32.301Z,53
2016-11-22T05:36:32.367Z,52.81
2016-11-22T05:37:32.052Z,52.91
2016-11-22T05:38:32.081Z,52.91
2016-11-22T05:39:32.429Z,52.91
2016-11-22T05:40:32.134Z,52.91
2016-11-22T05:41:32.463Z,52.91
2016-11-22T05:42:32.491Z,52.91
2016-11-22T05:43:32.528Z,53
2016-11-22T05:44:32.586Z,53
2016-11-22T05:45:32.270Z,52.91
2016-11-22T05:46:32.311Z,53.41
2016-11-22T05:47:32.628Z,53.19
2016-11-22T05:48:32.357Z,53.29
2016-11-22T05:49:32.382Z,53.19
2016-11-22T05:50:32.714Z,53.13
2016-11-22T05:51:32.748Z,53.22
2016-11-22T05:52:32.472Z,53.22
2016-11-22T05:53:32.501Z,53.03
2016-11-22T05:54:32.830Z,52.83
2016-11-22T05:55:32.859Z,52.93
2016-11-22T05:56:32.579Z,52.93
2016-11-22T05:57:32.920Z,52.73
2016-11-22T05:58:32.953Z,52.73
2016-11-22T05:59:32.978Z,52.83
2016-11-22T06:00:33.002Z,52.64
2016-11-22T06:01:33.016Z,52.45
2016-11-22T06:02:33.056Z,52.64
2016-11-22T06:03:32.773Z,52.45
2016-11-22T06:04:33.110Z,52.64
2016-11-22T06:05:33.130Z,52.55
2016-11-22T06:06:32.864Z,52.93
2016-11-22T06:07:32.889Z,52.93
2016-11-22T06:08:33.209Z,52.73
2016-11-22T06:09:33.246Z,52.06
2016-11-22T06:10:32.963Z,53.13
2016-11-22T06:11:33.307Z,52.45
2016-11-22T06:12:33.332Z,52.06
2016-11-22T06:13:33.357Z,52.16
2016-11-22T06:14:33.381Z,52.25
2016-11-22T06:15:33.410Z,52.06
2016-11-22T06:16:33.140Z,52.25
2016-11-22T06:17:33.168Z,51.97
2016-11-22T06:18:33.205Z,52.06
2016-11-22T06:19:33.226Z,52.16
2016-11-22T06:20:33.251Z,51.97
2016-11-22T06:21:33.591Z,52.09
2016-11-22T06:22:33.308Z,52.16
2016-11-22T06:23:33.641Z,52.37
2016-11-22T06:24:33.670Z,52.37
2016-11-22T06:25:33.386Z,52.19
2016-11-22T06:26:33.723Z,52.19
2016-11-22T06:27:33.447Z,51.97
2016-11-22T06:28:33.781Z,52.09
2016-11-22T06:29:33.804Z,52.09
2016-11-22T06:30:33.826Z,52.09
2016-11-22T06:31:33.863Z,52.37
2016-11-22T06:32:33.591Z,51.99
2016-11-22T06:33:33.916Z,52.09
2016-11-22T06:34:33.948Z,51.89
2016-11-22T06:35:33.973Z,51.7
2016-11-22T06:36:34.001Z,51.99
2016-11-22T06:37:33.730Z,51.7
2016-11-22T06:38:34.053Z,51.8
2016-11-22T06:39:33.780Z,51.7
2016-11-22T06:40:33.813Z,51.8
2016-11-22T06:41:33.834Z,51.89
2016-11-22T06:42:33.866Z,51.8
2016-11-22T06:43:34.199Z,51.51
2016-11-22T06:44:33.920Z,51.51
2016-11-22T06:45:34.249Z,51.61
2016-11-22T06:46:33.977Z,51.7
2016-11-22T06:47:34.310Z,51.8
2016-11-22T06:48:34.343Z,51.51
2016-11-22T06:49:34.063Z,51.7
2016-11-22T06:50:34.088Z,51.7
2016-11-22T06:51:34.417Z,51.7
2016-11-22T06:52:34.446Z,51.7
2016-11-22T06:53:34.479Z,51.99
2016-11-22T06:54:34.537Z,51.89
2016-11-22T06:55:34.537Z,51.99
2016-11-22T06:56:34.256Z,51.99
2016-11-22T06:57:34.586Z,51.89
2016-11-22T06:58:34.305Z,51.89
2016-11-22T06:59:34.644Z,51.89
2016-11-22T07:00:34.671Z,51.89
2016-11-22T07:01:34.400Z,51.8
2016-11-22T07:02:34.733Z,51.61
2016-11-22T07:03:34.758Z,51.41
2016-11-22T07:04:34.783Z,51.25
2016-11-22T07:05:34.851Z,51.51
2016-11-22T07:06:34.844Z,51.41
2016-11-22T07:07:34.873Z,51.41
2016-11-22T07:08:34.905Z,51.32
2016-11-22T07:09:34.926Z,51.41
2016-11-22T07:10:34.959Z,51.41
2016-11-22T07:11:34.988Z,51.44
2016-11-22T07:12:35.012Z,51.63
2016-11-22T07:13:35.040Z,51.44
2016-11-22T07:14:35.065Z,51.63
2016-11-22T07:15:35.106Z,51.44
2016-11-22T07:16:35.123Z,51.25
2016-11-22T07:17:34.844Z,51.44
2016-11-22T07:18:35.175Z,51.25
2016-11-22T07:19:35.224Z,51.44
2016-11-22T07:20:35.246Z,51.34
2016-11-22T07:21:34.960Z,51.82
2016-11-22T07:22:35.287Z,51.34
2016-11-22T07:23:35.328Z,51.44
2016-11-22T07:24:35.053Z,51.63
2016-11-22T07:25:35.114Z,51.25
2016-11-22T07:26:35.410Z,51.44
2016-11-22T07:27:35.439Z,51.53
2016-11-22T07:28:35.163Z,51.44
2016-11-22T07:29:35.493Z,51.44
2016-11-22T07:30:35.517Z,51.15
2016-11-22T07:31:35.558Z,51.34
2016-11-22T07:32:35.574Z,51.25
2016-11-22T07:33:35.607Z,51.25
2016-11-22T07:34:35.639Z,51.15
2016-11-22T07:35:35.663Z,51.15
2016-11-22T07:36:35.386Z,51.05
2016-11-22T07:37:35.418Z,51.05
2016-11-22T07:38:35.750Z,51.34
2016-11-22T07:39:35.483Z,51.25
2016-11-22T07:40:35.499Z,51.15
2016-11-22T07:41:35.828Z,51.34
2016-11-22T07:42:35.855Z,51.34
2016-11-22T07:43:35.577Z,51.25
2016-11-22T07:44:35.610Z,51.05
2016-11-22T07:45:35.639Z,51.25
2016-11-22T07:46:35.959Z,51.53
2016-11-22T07:47:35.696Z,51.44
2016-11-22T07:48:36.057Z,51.15
2016-11-22T07:49:35.758Z,51.05
2016-11-22T07:50:36.090Z,51.34
2016-11-22T07:51:36.118Z,51.15
2016-11-22T07:52:35.831Z,51.34
2016-11-22T07:53:36.172Z,51.15
2016-11-22T07:54:35.890Z,51.15
2016-11-22T07:55:36.225Z,51.05
2016-11-22T07:56:36.263Z,51.25
2016-11-22T07:57:36.292Z,51.25
2016-11-22T07:58:36.309Z,51.53
2016-11-22T07:59:36.349Z,51.05
2016-11-22T08:00:36.370Z,51.25
2016-11-22T08:01:36.406Z,51.25
2016-11-22T08:02:36.425Z,51.53
2016-11-22T08:03:36.453Z,51.63
2016-11-22T08:04:36.488Z,51.15
2016-11-22T08:05:36.504Z,51.34
2016-11-22T08:06:36.230Z,51.63
2016-11-22T08:07:36.270Z,51.44
2016-11-22T08:08:36.594Z,51.44
2016-11-22T08:09:36.627Z,51.44
2016-11-22T08:10:36.660Z,51.44
2016-11-22T08:11:36.676Z,51.44
2016-11-22T08:12:36.709Z,51.53
2016-11-22T08:13:36.726Z,51.44
2016-11-22T08:14:36.755Z,51.82
2016-11-22T08:15:36.791Z,51.15
2016-11-22T08:16:36.516Z,50.47
2016-11-22T08:17:36.853Z,50.16
2016-11-22T08:18:36.569Z,51.22
2016-11-22T08:19:36.906Z,51.03
2016-11-22T08:20:36.931Z,51.22
2016-11-22T08:21:36.966Z,51.51
2016-11-22T08:22:36.980Z,51.32
2016-11-22T08:23:37.013Z,51.61
2016-11-22T08:24:37.041Z,51.41
2016-11-22T08:25:36.769Z,51.22
2016-11-22T08:26:37.102Z,51.89
2016-11-22T08:27:36.820Z,51.51
2016-11-22T08:28:36.852Z,51.51
2016-11-22T08:29:37.180Z,50.84
2016-11-22T08:30:37.209Z,51.51
2016-11-22T08:31:37.246Z,51.12
2016-11-22T08:32:37.271Z,50.06
2016-11-22T08:33:37.292Z,51.32
2016-11-22T08:34:37.320Z,51.51
2016-11-22T08:35:37.065Z,50.64
2016-11-22T08:36:37.386Z,50.16
2016-11-22T08:37:37.102Z,50.93
2016-11-22T08:38:37.135Z,50.45
2016-11-22T08:39:37.164Z,49.96
2016-11-22T08:40:37.488Z,51.32
2016-11-22T08:41:37.542Z,51.29
2016-11-22T08:42:37.241Z,51.51
2016-11-22T08:43:37.574Z,50.42
2016-11-22T08:44:37.612Z,49.75
2016-11-22T08:45:37.620Z,50.13
2016-11-22T08:46:37.684Z,50.42
2016-11-22T08:47:37.685Z,51.2
2016-11-22T08:48:37.706Z,51.29
2016-11-22T08:49:37.750Z,51
2016-11-22T08:50:37.775Z,51.2
2016-11-22T08:51:37.800Z,51.1
2016-11-22T08:52:38.216Z,51.39
2016-11-22T08:53:37.861Z,51.68
2016-11-22T08:54:37.883Z,51.68
2016-11-22T08:55:37.618Z,51.68
2016-11-22T08:56:37.928Z,51.58
2016-11-22T08:57:37.660Z,51.39
2016-11-22T08:58:38.001Z,51.1
2016-11-22T08:59:37.718Z,50.32
2016-11-22T09:00:38.054Z,50.23
2016-11-22T09:01:37.768Z,49.55
2016-11-22T09:02:37.792Z,49.94
2016-11-22T09:03:38.141Z,49.46
2016-11-22T09:04:38.160Z,48.88
2016-11-22T09:05:37.890Z,49.17
2016-11-22T09:06:38.223Z,48.76
2016-11-22T09:07:38.251Z,48.76
2016-11-22T09:08:38.268Z,48.38
2016-11-22T09:09:38.004Z,49.05
2016-11-22T09:10:38.330Z,49.05
2016-11-22T09:11:38.054Z,49.73
2016-11-22T09:12:38.382Z,49.63
2016-11-22T09:13:38.431Z,50.11
2016-11-22T09:14:38.136Z,50.01
2016-11-22T09:15:38.475Z,50.11
2016-11-22T09:16:38.486Z,50.01
2016-11-22T09:17:38.526Z,49.53
2016-11-22T09:18:38.276Z,50.21
2016-11-22T09:19:38.584Z,49.63
2016-11-22T09:20:38.605Z,50.4
2016-11-22T09:21:38.629Z,49.82
2016-11-22T09:22:38.354Z,49.82
2016-11-22T09:23:38.686Z,49.63
2016-11-22T09:24:38.715Z,49.82
2016-11-22T09:25:38.752Z,50.01
2016-11-22T09:26:38.782Z,49.91
2016-11-22T09:27:38.806Z,50.21
2016-11-22T09:28:38.834Z,49.82
2016-11-22T09:29:38.863Z,50.01
2016-11-22T09:30:38.888Z,50.01
2016-11-22T09:31:38.613Z,50.11
2016-11-22T09:32:38.942Z,50.59
2016-11-22T09:33:38.982Z,50.52
2016-11-22T09:34:38.997Z,50.62
2016-11-22T09:35:38.719Z,50.32
2016-11-22T09:36:39.057Z,50.62
2016-11-22T09:37:39.085Z,50.32
2016-11-22T09:38:38.805Z,50.32
2016-11-22T09:39:38.847Z,50.23
2016-11-22T09:40:39.158Z,50.23
2016-11-22T09:41:39.223Z,50.32
2016-11-22T09:42:39.212Z,50.23
2016-11-22T09:43:39.248Z,50.13
2016-11-22T09:44:38.974Z,50.32
2016-11-22T09:45:39.315Z,50.23
2016-11-22T09:46:39.019Z,50.13
2016-11-22T09:47:39.368Z,50.23
2016-11-22T09:48:39.389Z,50.13
2016-11-22T09:49:39.429Z,50.13
2016-11-22T09:50:39.134Z,50.23
2016-11-22T09:51:39.171Z,50.32
2016-11-22T09:52:39.500Z,50.23
2016-11-22T09:53:39.228Z,50.32
2016-11-22T09:54:39.249Z,50.23
2016-11-22T09:55:39.597Z,50.32
2016-11-22T09:56:39.303Z,50.52
2016-11-22T09:57:39.659Z,50.42
2016-11-22T09:58:39.669Z,50.52
2016-11-22T09:59:39.699Z,50.52
2016-11-22T10:00:39.718Z,50.52
2016-11-22T10:01:39.782Z,50.9
2016-11-22T10:02:39.471Z,51
2016-11-22T10:03:39.813Z,51
2016-11-22T10:04:39.835Z,51
2016-11-22T10:05:39.865Z,51.2
2016-11-22T10:06:39.579Z,51
2016-11-22T10:07:39.919Z,50.9
2016-11-22T10:08:39.955Z,51
2016-11-22T10:09:39.668Z,50.9
2016-11-22T10:10:39.997Z,51.1
2016-11-22T10:11:39.742Z,51.2
2016-11-22T10:12:40.062Z,51
2016-11-22T10:13:40.087Z,51.1
2016-11-22T10:14:40.107Z,51
2016-11-22T10:15:39.832Z,51
2016-11-22T10:16:39.869Z,50.9
2016-11-22T10:17:40.210Z,51.2
2016-11-22T10:18:39.919Z,50.42
2016-11-22T10:19:40.260Z,50.52
2016-11-22T10:20:39.968Z,51.1
2016-11-22T10:21:40.001Z,51.2
2016-11-22T10:22:40.329Z,51
2016-11-22T10:23:40.398Z,51.1
2016-11-22T10:24:40.395Z,50.81
2016-11-22T10:25:40.452Z,50.71
2016-11-22T10:26:40.445Z,50.71
2016-11-22T10:27:40.173Z,50.81
2016-11-22T10:28:40.493Z,51.39
2016-11-22T10:29:40.543Z,51.39
2016-11-22T10:30:40.550Z,51.2
2016-11-22T10:31:40.580Z,51.1
2016-11-22T10:32:40.309Z,51.39
2016-11-22T10:33:40.653Z,51.1
2016-11-22T10:34:40.686Z,51.2
2016-11-22T10:35:40.699Z,51.29
2016-11-22T10:36:40.727Z,51.39
2016-11-22T10:37:40.448Z,51.48
2016-11-22T10:38:40.785Z,51.1
2016-11-22T10:39:40.810Z,51.1
2016-11-22T10:40:40.533Z,51.48
2016-11-22T10:41:40.868Z,51
2016-11-22T10:42:40.597Z,51
2016-11-22T10:43:40.933Z,51.2
2016-11-22T10:44:40.644Z,51.58
2016-11-22T10:45:40.974Z,51.58
2016-11-22T10:46:41.003Z,51.1
2016-11-22T10:47:41.032Z,51.29
2016-11-22T10:48:40.757Z,51.39
2016-11-22T10:49:41.097Z,51.77
2016-11-22T10:50:41.116Z,51.58
2016-11-22T10:51:40.860Z,51.29
2016-11-22T10:52:41.171Z,50.9
2016-11-22T10:53:41.196Z,51.39
2016-11-22T10:54:41.225Z,51.48
2016-11-22T10:55:41.258Z,51.39
2016-11-22T10:56:41.278Z,51.29
2016-11-22T10:57:41.315Z,51.48
2016-11-22T10:58:41.336Z,51.48
2016-11-22T10:59:41.381Z,51.39
2016-11-22T11:00:41.393Z,50.9
2016-11-22T11:01:41.435Z,50.9
2016-11-22T11:02:41.451Z,51.39
2016-11-22T11:03:41.184Z,51.2
2016-11-22T11:04:41.505Z,51.48
2016-11-22T11:05:41.533Z,51.1
2016-11-22T11:06:41.558Z,51.2
2016-11-22T11:07:41.601Z,51.39
2016-11-22T11:08:41.659Z,51.1
2016-11-22T11:09:41.648Z,51.29
2016-11-22T11:10:41.681Z,51.48
2016-11-22T11:11:41.706Z,51.29
2016-11-22T11:12:41.422Z,51.29
2016-11-22T11:13:41.767Z,51.29
2016-11-22T11:14:41.484Z,51.1
2016-11-22T11:15:41.508Z,51.29
2016-11-22T11:16:41.841Z,51.29
2016-11-22T11:17:41.878Z,51.1
2016-11-22T11:18:41.590Z,51.1
2016-11-22T11:19:41.623Z,51.1
2016-11-22T11:20:41.989Z,51.2
2016-11-22T11:21:41.989Z,51.1
2016-11-22T11:22:42.002Z,51.29
2016-11-22T11:23:42.038Z,51.2
2016-11-22T11:24:41.759Z,51.29
2016-11-22T11:25:42.096Z,51.2
2016-11-22T11:26:41.825Z,51.1
2016-11-22T11:27:42.153Z,51.48
2016-11-22T11:28:42.175Z,51.58
2016-11-22T11:29:42.203Z,51
2016-11-22T11:30:41.928Z,51.39
2016-11-22T11:31:42.257Z,50.9
2016-11-22T11:32:42.285Z,51.39
2016-11-22T11:33:42.310Z,51.39
2016-11-22T11:34:42.334Z,51.29
2016-11-22T11:35:42.371Z,51.48
2016-11-22T11:36:42.096Z,51.2
2016-11-22T11:37:42.127Z,51.29
2016-11-22T11:38:42.445Z,51.29
2016-11-22T11:39:42.175Z,51.29
2016-11-22T11:40:42.515Z,51.48
2016-11-22T11:41:42.540Z,51.1
2016-11-22T11:42:42.267Z,51.39
2016-11-22T11:43:42.593Z,51.39
2016-11-22T11:44:42.624Z,51.29
2016-11-22T11:45:42.692Z,51.58
2016-11-22T11:46:42.375Z,51.39
2016-11-22T11:47:42.721Z,51
2016-11-22T11:48:42.737Z,51.58
2016-11-22T11:49:42.757Z,51.1
2016-11-22T11:50:42.486Z,51.29
2016-11-22T11:51:42.823Z,51.1
2016-11-22T11:52:42.843Z,51.39
2016-11-22T11:53:42.572Z,51.2
2016-11-22T11:54:42.593Z,51.39
2016-11-22T11:55:42.946Z,51.1
2016-11-22T11:56:42.960Z,51.48
2016-11-22T11:57:42.983Z,51.48
2016-11-22T11:58:43.016Z,50.9
2016-11-22T11:59:42.749Z,50.71
2016-11-22T12:00:42.761Z,50.9
2016-11-22T12:01:43.107Z,51.1
2016-11-22T12:02:42.815Z,51.1
2016-11-22T12:03:42.855Z,51
2016-11-22T12:04:43.179Z,51.1
2016-11-22T12:05:43.204Z,50.93
2016-11-22T12:06:42.938Z,50.81
2016-11-22T12:07:43.266Z,51
2016-11-22T12:08:43.291Z,50.74
2016-11-22T12:09:43.327Z,50.71
2016-11-22T12:10:43.353Z,50.42
2016-11-22T12:11:43.397Z,50.64
2016-11-22T12:12:43.413Z,50.71
2016-11-22T12:13:43.446Z,50.54
2016-11-22T12:14:43.463Z,50.35
2016-11-22T12:15:43.488Z,50.54
2016-11-22T12:16:43.525Z,50.16
2016-11-22T12:17:43.550Z,50.16
2016-11-22T12:18:43.575Z,50.16
2016-11-22T12:19:43.607Z,50.45
2016-11-22T12:20:43.639Z,50.35
2016-11-22T12:21:43.664Z,50.45
2016-11-22T12:22:43.685Z,50.35
2016-11-22T12:23:43.725Z,50.26
2016-11-22T12:24:43.754Z,50.26
2016-11-22T12:25:43.783Z,50.64
2016-11-22T12:26:43.499Z,50.64
2016-11-22T12:27:43.832Z,50.64
2016-11-22T12:28:43.556Z,50.74
2016-11-22T12:29:43.883Z,50.64
2016-11-22T12:30:43.918Z,50.64
2016-11-22T12:31:43.951Z,50.64
2016-11-22T12:32:43.976Z,50.74
2016-11-22T12:33:44.005Z,50.64
2016-11-22T12:34:44.021Z,50.45
2016-11-22T12:35:44.058Z,50.26
2016-11-22T12:36:44.091Z,50.35
2016-11-22T12:37:43.807Z,50.64
2016-11-22T12:38:43.837Z,50.64
2016-11-22T12:39:44.173Z,50.26
2016-11-22T12:40:43.895Z,50.26
2016-11-22T12:41:43.934Z,50.74
2016-11-22T12:42:44.259Z,50.64
2016-11-22T12:43:44.295Z,50.45
2016-11-22T12:44:44.320Z,50.26
2016-11-22T12:45:44.036Z,50.64
2016-11-22T12:46:44.392Z,50.45
2016-11-22T12:47:44.393Z,50.45
2016-11-22T12:48:44.120Z,50.54
2016-11-22T12:49:44.154Z,50.45
2016-11-22T12:50:44.474Z,50.35
2016-11-22T12:51:44.508Z,50.35
2016-11-22T12:52:44.531Z,50.16
2016-11-22T12:53:44.592Z,50.54
2016-11-22T12:54:44.593Z,50.54
2016-11-22T12:55:44.623Z,50.35
2016-11-22T12:56:44.350Z,50.35
2016-11-22T12:57:44.682Z,50.26
2016-11-22T12:58:44.407Z,50.26
2016-11-22T12:59:44.740Z,50.35
2016-11-22T13:00:44.764Z,50.26
2016-11-22T13:01:44.488Z,50.16
2016-11-22T13:02:44.821Z,50.35
2016-11-22T13:03:44.846Z,50.26
2016-11-22T13:04:45.083Z,50.54
2016-11-22T13:05:44.607Z,50.74